VTSS

Hat Yai International Airport

Hat Yai, Thailand
TAF VTSS 212300Z 2200/2224 06008KT 9999 FEW020
Issued Valid From Valid To
Jan-21 @ 23:00 UTC
(an hour ago)
Jan-22 @ 00:00 UTC
(12 minutes ago)
Jan-23 @ 00:00 UTC
(in 24 hours)
Jan-22 @ 00:00 to Jan-23 @ 00:00
TAF VTSS 212300Z 2200/2224 06008KT 9999 FEW020
Wind Visibility Clouds
60° at 8 knots 10,000+ meters
  • Few at 2,000' AGL
TAF VTSS 212300Z 2200/2224 06008KT 9999 FEW020
Issued Jan-21 @ 23:00 UTC
(an hour ago)
Valid From Jan-22 @ 00:00 UTC
(12 minutes ago)
Valid To Jan-23 @ 00:00 UTC
(in 24 hours)
Jan-22 @ 00:00 - Jan-23 @ 00:00
Wind Visibility
60° at 8 knots 10,000+ meters
Clouds
  • Few at 2,000' AGL